Time;durP1;ratioP1;P1;durP2;ratioP2;P2;SDS_P1;SDS_P2;PMS_P1;PMS_P2;Temp;Humidity;BMP_temperature;BMP_pressure;BME280_temperature;BME280_humidity;BME280_pressure;Samples;Min_cycle;Max_cycle;Signal;HPM_P1;HPM_P2
2023/03/04 00:00:25;;;;;;;9.25;2.80;;;6.10;99.90;;;;;;5070830;28;20048;-60
2023/03/04 00:02:50;;;;;;;11.30;2.70;;;6.10;99.90;;;;;;5077395;28;20507;-60
2023/03/04 00:05:16;;;;;;;12.82;3.00;;;6.10;99.90;;;;;;5087705;28;20546;-61
2023/03/04 00:07:42;;;;;;;13.65;3.60;;;6.10;99.90;;;;;;5073804;28;20467;-61
2023/03/04 00:10:08;;;;;;;12.30;3.47;;;6.00;99.90;;;;;;5073828;28;20036;-61
2023/03/04 00:12:34;;;;;;;11.07;3.25;;;6.10;99.90;;;;;;5056451;28;20048;-60
2023/03/04 00:14:59;;;;;;;14.00;2.78;;;6.10;99.90;;;;;;5074062;28;20462;-61
2023/03/04 00:17:25;;;;;;;13.02;3.08;;;6.10;99.90;;;;;;5073876;28;20032;-61
2023/03/04 00:19:51;;;;;;;13.52;2.67;;;6.10;99.90;;;;;;5084625;28;20503;-60
2023/03/04 00:22:16;;;;;;;8.57;3.30;;;6.10;99.90;;;;;;5115690;28;20384;-60
2023/03/04 00:24:42;;;;;;;14.40;3.33;;;6.00;99.90;;;;;;5115740;28;20483;-61
2023/03/04 00:27:07;;;;;;;10.63;3.20;;;6.00;99.90;;;;;;5114825;28;20039;-61
2023/03/04 00:29:33;;;;;;;14.13;2.50;;;6.00;99.90;;;;;;5115510;28;20084;-61
2023/03/04 00:31:59;;;;;;;14.88;3.55;;;6.10;99.90;;;;;;5114562;28;20498;-60
2023/03/04 00:34:24;;;;;;;11.05;2.88;;;6.10;99.90;;;;;;5111207;28;20045;-61
2023/03/04 00:36:50;;;;;;;10.90;2.38;;;6.00;99.90;;;;;;5114050;28;20043;-61
2023/03/04 00:39:16;;;;;;;11.57;2.88;;;6.00;99.90;;;;;;5115437;28;20072;-60
2023/03/04 00:41:41;;;;;;;13.23;2.88;;;6.00;99.90;;;;;;5113015;28;20089;-61
2023/03/04 00:44:07;;;;;;;15.75;3.25;;;6.00;99.90;;;;;;5115286;28;20047;-61
2023/03/04 00:46:33;;;;;;;8.10;2.20;;;6.00;99.90;;;;;;5113963;28;20081;-61
2023/03/04 00:48:58;;;;;;;10.20;2.53;;;6.00;99.90;;;;;;5113011;28;20452;-61
2023/03/04 00:51:24;;;;;;;9.95;2.80;;;6.00;99.90;;;;;;5096583;28;20035;-61
2023/03/04 00:53:51;;;;;;;14.43;3.00;;;6.00;99.90;;;;;;5115246;28;20036;-60
2023/03/04 00:56:17;;;;;;;11.20;2.50;;;6.00;99.90;;;;;;5112572;28;20039;-60
2023/03/04 00:58:42;;;;;;;11.48;2.72;;;6.00;99.90;;;;;;5113750;28;20043;-61
2023/03/04 01:01:08;;;;;;;13.27;2.78;;;6.00;99.90;;;;;;5113718;28;20036;-60
2023/03/04 01:03:34;;;;;;;16.30;2.88;;;6.00;99.90;;;;;;5095506;28;20036;-60
2023/03/04 01:05:59;;;;;;;10.52;3.22;;;6.00;99.90;;;;;;5115016;28;20404;-60
2023/03/04 01:08:25;;;;;;;15.75;3.17;;;6.00;99.90;;;;;;5112385;28;20043;-60
2023/03/04 01:10:51;;;;;;;14.70;4.25;;;6.00;99.90;;;;;;5113765;28;20373;-61
2023/03/04 01:13:17;;;;;;;14.35;3.13;;;6.00;99.90;;;;;;5113285;28;20049;-60
2023/03/04 01:15:44;;;;;;;14.13;3.25;;;6.00;99.90;;;;;;5112010;28;20055;-61
2023/03/04 01:18:10;;;;;;;14.75;3.05;;;5.90;99.90;;;;;;5112730;28;20059;-60
2023/03/04 01:20:36;;;;;;;10.90;2.58;;;6.00;99.90;;;;;;5098376;28;20419;-60
2023/03/04 01:23:01;;;;;;;13.73;2.78;;;6.00;99.90;;;;;;5075335;28;20073;-61
2023/03/04 01:25:27;;;;;;;9.50;3.53;;;6.00;99.90;;;;;;5093635;28;20047;-60
2023/03/04 01:27:53;;;;;;;10.52;3.35;;;6.00;99.90;;;;;;5093150;28;20079;-61
2023/03/04 01:30:18;;;;;;;13.77;3.30;;;6.00;99.90;;;;;;5091946;28;20373;-61
2023/03/04 01:32:44;;;;;;;12.45;2.47;;;6.00;99.90;;;;;;5092634;28;20040;-60
2023/03/04 01:35:10;;;;;;;11.82;2.22;;;6.00;99.90;;;;;;5089048;28;20043;-61
2023/03/04 01:37:36;;;;;;;13.27;3.00;;;6.00;99.90;;;;;;5076050;28;20032;-61
2023/03/04 01:40:02;;;;;;;9.75;2.92;;;6.00;99.90;;;;;;5092812;28;20031;-61
2023/03/04 01:42:32;;;;;;;17.92;3.45;;;5.90;99.90;;;;;;5092417;28;20127;-60
2023/03/04 01:44:58;;;;;;;19.73;3.78;;;6.00;99.90;;;;;;5093206;28;20077;-61
2023/03/04 01:47:28;;;;;;;16.38;3.30;;;6.00;99.90;;;;;;5091917;28;20447;-61
2023/03/04 01:49:56;;;;;;;13.77;2.97;;;6.00;99.90;;;;;;5075724;28;20046;-60
2023/03/04 01:52:22;;;;;;;11.07;4.30;;;6.00;99.90;;;;;;5092624;28;20115;-61
2023/03/04 01:54:48;;;;;;;11.95;2.70;;;5.90;99.90;;;;;;5092093;28;20542;-61
2023/03/04 01:57:24;;;;;;;10.85;2.33;;;5.90;99.90;;;;;;5093531;28;20032;-60
2023/03/04 02:00:18;;;;;;;15.55;3.22;;;5.90;99.90;;;;;;5091879;28;20384;-60
2023/03/04 02:02:44;;;;;;;13.40;2.88;;;5.90;99.90;;;;;;5092023;28;20044;-60
2023/03/04 02:05:10;;;;;;;11.57;2.85;;;5.80;99.90;;;;;;5091082;28;20063;-60
2023/03/04 02:07:36;;;;;;;11.43;2.85;;;5.90;99.90;;;;;;5075308;28;20044;-61
2023/03/04 02:10:03;;;;;;;10.40;2.40;;;5.90;99.90;;;;;;5075502;28;20039;-61
2023/03/04 02:12:28;;;;;;;11.48;2.30;;;5.90;99.90;;;;;;5090597;28;20072;-60
2023/03/04 02:14:54;;;;;;;11.13;3.00;;;5.90;99.90;;;;;;5092313;28;20078;-60
2023/03/04 02:17:27;;;;;;;10.00;2.50;;;5.90;99.90;;;;;;5091894;28;20036;-60
2023/03/04 02:20:23;;;;;;;14.07;3.25;;;6.00;99.90;;;;;;5091173;28;20040;-61
2023/03/04 02:23:00;;;;;;;12.10;2.80;;;6.00;99.90;;;;;;5088384;28;20089;-61
2023/03/04 02:25:34;;;;;;;10.57;2.30;;;5.90;99.90;;;;;;5054466;28;20048;-61
2023/03/04 02:28:00;;;;;;;12.10;2.47;;;6.00;99.90;;;;;;5053801;28;20086;-61
2023/03/04 02:30:26;;;;;;;8.52;2.20;;;6.00;99.90;;;;;;5072060;28;20048;-61
2023/03/04 02:32:52;;;;;;;14.07;2.00;;;6.00;99.90;;;;;;5087414;28;20041;-61
2023/03/04 02:35:19;;;;;;;13.35;2.58;;;6.00;99.90;;;;;;5088195;28;20480;-61
2023/03/04 02:37:45;;;;;;;10.13;2.58;;;6.00;99.90;;;;;;5091386;28;20515;-61
2023/03/04 02:40:21;;;;;;;13.45;2.38;;;6.00;99.90;;;;;;5090439;28;20040;-61
2023/03/04 02:42:47;;;;;;;14.45;2.38;;;6.10;99.90;;;;;;5091320;28;20105;-60
2023/03/04 02:45:31;;;;;;;12.50;2.88;;;6.10;99.90;;;;;;5074337;28;20090;-60
2023/03/04 02:47:57;;;;;;;12.70;2.88;;;6.10;99.90;;;;;;5090676;28;20074;-60
2023/03/04 02:50:23;;;;;;;15.23;3.95;;;6.00;99.90;;;;;;5087737;28;20045;-60
2023/03/04 02:52:49;;;;;;;9.77;2.13;;;6.10;99.90;;;;;;5071104;28;20040;-60
2023/03/04 02:55:15;;;;;;;8.73;2.40;;;6.10;99.90;;;;;;5089367;28;20477;-61
2023/03/04 02:57:40;;;;;;;9.77;2.50;;;6.00;99.90;;;;;;5092147;28;20040;-60
2023/03/04 03:00:07;;;;;;;8.23;2.55;;;6.00;99.90;;;;;;5092405;28;20044;-60
2023/03/04 03:02:32;;;;;;;17.63;3.78;;;6.00;99.90;;;;;;5091385;28;20050;-60
2023/03/04 03:04:58;;;;;;;8.80;2.83;;;6.00;99.90;;;;;;5092686;28;20118;-60
2023/03/04 03:07:24;;;;;;;13.30;2.88;;;5.90;99.90;;;;;;5091045;28;20433;-61
2023/03/04 03:09:49;;;;;;;12.20;2.63;;;6.00;99.90;;;;;;5091649;28;20044;-61
2023/03/04 03:12:15;;;;;;;5.85;1.95;;;6.00;99.90;;;;;;5087458;28;20032;-60
2023/03/04 03:14:41;;;;;;;9.35;2.20;;;6.00;99.90;;;;;;5054211;28;20037;-61
2023/03/04 03:17:06;;;;;;;14.20;3.10;;;6.00;99.90;;;;;;5069771;28;20055;-60
2023/03/04 03:19:32;;;;;;;11.93;2.10;;;6.00;99.90;;;;;;5073351;28;20040;-60
2023/03/04 03:21:57;;;;;;;9.88;2.15;;;6.00;99.90;;;;;;5092223;28;20040;-60
2023/03/04 03:24:23;;;;;;;10.88;2.78;;;6.00;99.90;;;;;;5090252;28;20127;-61
2023/03/04 03:26:49;;;;;;;9.52;2.25;;;6.00;99.90;;;;;;5073994;28;20048;-60
2023/03/04 03:29:14;;;;;;;15.10;3.05;;;6.00;99.90;;;;;;5089969;28;20044;-60
2023/03/04 03:31:40;;;;;;;16.77;2.63;;;6.00;99.90;;;;;;5090698;28;20040;-61
2023/03/04 03:34:06;;;;;;;7.15;2.42;;;6.00;99.90;;;;;;5090914;28;20047;-61
2023/03/04 03:36:31;;;;;;;9.15;2.45;;;5.90;99.90;;;;;;5091147;28;20040;-60
2023/03/04 03:38:57;;;;;;;9.30;2.05;;;6.00;99.90;;;;;;5091235;28;20040;-61
2023/03/04 03:41:23;;;;;;;8.60;2.20;;;6.00;99.90;;;;;;5093983;28;20059;-60
2023/03/04 03:43:48;;;;;;;6.32;1.95;;;6.00;99.90;;;;;;5093900;28;20147;-61
2023/03/04 03:46:14;;;;;;;12.85;2.33;;;6.00;99.90;;;;;;5094607;28;20082;-61
2023/03/04 03:48:39;;;;;;;7.50;1.90;;;6.00;99.90;;;;;;5074369;28;20043;-60
2023/03/04 03:51:05;;;;;;;10.82;2.15;;;6.00;99.90;;;;;;5073619;28;20071;-60
2023/03/04 03:53:31;;;;;;;7.40;2.03;;;6.10;99.90;;;;;;5075589;28;20037;-60
2023/03/04 03:55:57;;;;;;;10.95;1.80;;;6.10;99.90;;;;;;5058015;28;20382;-60
2023/03/04 03:58:25;;;;;;;3.42;1.27;;;6.10;99.90;;;;;;5074630;28;20048;-60
2023/03/04 04:00:51;;;;;;;7.22;1.50;;;6.10;99.90;;;;;;5075702;28;20044;-60
2023/03/04 04:03:17;;;;;;;10.05;1.70;;;6.10;99.90;;;;;;5103715;28;20052;-60
2023/03/04 04:05:43;;;;;;;6.80;1.42;;;6.10;99.90;;;;;;5115087;28;20040;-60
2023/03/04 04:08:14;;;;;;;7.82;1.88;;;6.10;99.90;;;;;;5116022;28;20043;-60
2023/03/04 04:10:40;;;;;;;6.90;1.90;;;6.10;99.90;;;;;;5097252;28;20039;-60
2023/03/04 04:13:05;;;;;;;7.50;2.00;;;6.10;99.90;;;;;;5114770;27;20085;-60
2023/03/04 04:15:31;;;;;;;10.80;1.88;;;6.10;99.90;;;;;;5114570;28;20047;-61
2023/03/04 04:17:57;;;;;;;9.07;2.50;;;6.20;99.90;;;;;;5114616;28;20126;-60
2023/03/04 04:20:22;;;;;;;9.18;2.25;;;6.20;99.90;;;;;;5115015;28;20428;-61
2023/03/04 04:22:48;;;;;;;5.88;1.55;;;6.20;99.90;;;;;;5114238;28;20454;-61
2023/03/04 04:25:14;;;;;;;5.32;1.38;;;6.20;99.90;;;;;;5113975;28;20043;-61
2023/03/04 04:27:39;;;;;;;11.40;1.60;;;6.20;99.90;;;;;;5114610;28;20448;-61
2023/03/04 04:30:06;;;;;;;9.00;2.15;;;6.20;99.90;;;;;;5114292;28;20106;-61
2023/03/04 04:32:31;;;;;;;7.15;1.88;;;6.20;99.90;;;;;;5112951;28;20057;-60
2023/03/04 04:34:57;;;;;;;6.47;1.35;;;6.20;99.90;;;;;;5114731;28;20035;-60
2023/03/04 04:37:23;;;;;;;11.15;2.25;;;6.20;99.90;;;;;;5114503;28;20426;-61
2023/03/04 04:39:50;;;;;;;9.30;1.92;;;6.20;99.90;;;;;;5113170;28;20486;-61
2023/03/04 04:42:16;;;;;;;7.68;1.60;;;6.30;99.90;;;;;;5113733;28;20412;-60
2023/03/04 04:44:41;;;;;;;5.43;1.75;;;6.40;99.90;;;;;;5113953;28;20048;-60
2023/03/04 04:47:12;;;;;;;7.47;2.05;;;6.30;99.90;;;;;;5114031;28;20047;-60
2023/03/04 04:49:38;;;;;;;7.25;1.20;;;6.30;99.90;;;;;;5113830;28;20046;-60
2023/03/04 04:52:04;;;;;;;7.45;1.60;;;6.10;99.90;;;;;;5113947;28;20428;-60
2023/03/04 04:54:29;;;;;;;6.35;1.45;;;6.10;99.90;;;;;;5095972;28;20036;-60
2023/03/04 04:56:55;;;;;;;11.20;2.17;;;6.10;99.90;;;;;;5114953;28;20059;-60
2023/03/04 04:59:21;;;;;;;11.93;1.75;;;6.00;99.90;;;;;;5114881;28;20120;-60
2023/03/04 05:01:47;;;;;;;14.73;2.45;;;6.10;99.90;;;;;;5095532;28;20093;-60
2023/03/04 05:04:12;;;;;;;10.40;2.25;;;6.00;99.90;;;;;;5096568;28;20083;-60
2023/03/04 05:06:38;;;;;;;6.47;1.55;;;6.00;99.90;;;;;;5113643;28;20044;-60
2023/03/04 05:09:04;;;;;;;7.60;1.55;;;6.00;99.90;;;;;;5114313;28;20041;-60
2023/03/04 05:11:30;;;;;;;8.70;2.05;;;6.00;99.90;;;;;;5114486;28;20039;-60
2023/03/04 05:13:56;;;;;;;9.27;1.58;;;6.00;99.90;;;;;;5113911;28;20162;-60
2023/03/04 05:16:22;;;;;;;9.00;1.58;;;6.00;99.90;;;;;;5112325;28;20028;-60
2023/03/04 05:18:47;;;;;;;11.10;2.35;;;6.00;99.90;;;;;;5113283;28;20381;-61
2023/03/04 05:21:13;;;;;;;9.85;2.17;;;6.00;99.90;;;;;;5113380;28;20115;-61
2023/03/04 05:23:41;;;;;;;11.15;1.95;;;6.00;99.90;;;;;;5112679;28;20407;-60
2023/03/04 05:26:10;;;;;;;8.88;2.17;;;6.00;99.90;;;;;;5114089;28;20484;-60
2023/03/04 05:28:36;;;;;;;6.63;1.50;;;6.00;99.90;;;;;;5112693;28;20032;-60
2023/03/04 05:31:02;;;;;;;10.05;3.38;;;6.00;99.90;;;;;;5114448;28;20096;-60
2023/03/04 05:33:28;;;;;;;12.27;2.67;;;6.00;99.90;;;;;;5112808;28;20036;-60
2023/03/04 05:35:54;;;;;;;8.55;1.65;;;6.00;99.90;;;;;;5112463;28;20039;-60
2023/03/04 05:38:21;;;;;;;7.82;1.95;;;6.00;99.90;;;;;;5112990;28;20499;-60
2023/03/04 05:40:49;;;;;;;9.05;2.20;;;6.00;99.90;;;;;;5112464;28;20051;-60
2023/03/04 05:43:16;;;;;;;6.70;1.95;;;6.00;99.90;;;;;;5112382;28;20048;-60
2023/03/04 05:45:41;;;;;;;8.25;2.33;;;6.00;99.90;;;;;;5113031;28;20388;-60
2023/03/04 05:48:07;;;;;;;10.73;2.10;;;6.00;99.90;;;;;;5114082;28;20036;-60
2023/03/04 05:50:34;;;;;;;10.90;2.10;;;6.00;99.90;;;;;;5094856;28;20101;-60
2023/03/04 05:52:59;;;;;;;7.28;1.95;;;6.00;99.90;;;;;;5112777;28;20055;-61
2023/03/04 05:55:27;;;;;;;6.70;1.80;;;6.00;99.90;;;;;;5112098;28;20043;-60
2023/03/04 05:57:53;;;;;;;7.68;2.97;;;6.00;99.90;;;;;;5111883;28;20122;-60
2023/03/04 06:00:19;;;;;;;13.07;2.28;;;5.90;99.90;;;;;;5112442;28;20118;-60
2023/03/04 06:02:45;;;;;;;8.25;1.40;;;5.90;99.90;;;;;;5111732;28;20369;-60
2023/03/04 06:05:13;;;;;;;10.38;1.42;;;5.80;99.90;;;;;;5112970;28;20488;-60
2023/03/04 06:07:39;;;;;;;6.47;1.45;;;5.70;99.90;;;;;;5095459;28;20050;-60
2023/03/04 06:10:06;;;;;;;7.80;2.00;;;5.70;99.90;;;;;;5113617;28;20488;-60
2023/03/04 06:12:31;;;;;;;10.48;2.83;;;5.70;99.90;;;;;;5111416;28;20122;-60
2023/03/04 06:14:57;;;;;;;11.35;1.70;;;5.70;99.90;;;;;;5112153;28;20118;-60
2023/03/04 06:17:23;;;;;;;8.48;1.85;;;5.60;99.90;;;;;;5113547;28;20071;-60
2023/03/04 06:19:48;;;;;;;9.05;2.20;;;5.60;99.90;;;;;;5112520;28;20398;-61
2023/03/04 06:22:14;;;;;;;10.90;2.47;;;5.50;99.90;;;;;;5111877;28;20403;-60
2023/03/04 06:24:40;;;;;;;10.30;2.35;;;5.50;99.90;;;;;;5111919;28;20130;-61
2023/03/04 06:27:05;;;;;;;13.77;3.03;;;5.50;99.90;;;;;;5112748;28;20075;-60
2023/03/04 06:29:31;;;;;;;9.90;2.42;;;5.50;99.90;;;;;;5111874;28;20079;-60
2023/03/04 06:31:57;;;;;;;11.52;2.45;;;5.50;99.90;;;;;;5112089;28;20476;-60
2023/03/04 06:34:23;;;;;;;9.73;2.70;;;5.60;99.90;;;;;;5113043;28;20034;-60
2023/03/04 06:36:49;;;;;;;10.00;2.28;;;5.60;99.90;;;;;;5111968;28;20078;-60
2023/03/04 06:39:14;;;;;;;12.10;2.90;;;5.60;99.90;;;;;;5110962;28;20562;-60
2023/03/04 06:41:40;;;;;;;11.30;3.72;;;5.60;99.90;;;;;;5112379;28;20051;-60
2023/03/04 06:44:06;;;;;;;15.07;3.00;;;5.60;99.90;;;;;;5111893;28;20076;-60
2023/03/04 06:46:33;;;;;;;10.85;2.97;;;5.60;99.90;;;;;;5094173;28;20036;-60
2023/03/04 06:48:59;;;;;;;16.40;3.45;;;5.60;99.90;;;;;;5113183;28;20070;-60
2023/03/04 06:51:25;;;;;;;11.43;2.67;;;5.60;99.90;;;;;;5112256;28;20475;-60
2023/03/04 06:53:50;;;;;;;15.23;2.55;;;5.60;99.90;;;;;;5093997;28;20118;-60
2023/03/04 06:56:17;;;;;;;8.57;1.95;;;5.60;99.90;;;;;;5111175;28;20046;-60
2023/03/04 06:58:44;;;;;;;9.38;1.85;;;5.60;99.90;;;;;;5111256;28;20104;-60
2023/03/04 07:01:18;;;;;;;12.25;2.10;;;5.70;99.90;;;;;;5111979;28;20118;-60
2023/03/04 07:03:44;;;;;;;10.68;1.80;;;5.70;99.90;;;;;;5094372;28;20043;-60
2023/03/04 07:06:12;;;;;;;10.75;1.90;;;5.70;99.90;;;;;;5094114;28;20089;-60
2023/03/04 07:08:38;;;;;;;8.70;1.98;;;5.70;99.90;;;;;;5111886;28;20040;-60
2023/03/04 07:11:04;;;;;;;12.50;2.38;;;5.70;99.90;;;;;;5111568;28;20131;-60
2023/03/04 07:13:30;;;;;;;8.05;1.83;;;5.80;99.90;;;;;;5112201;28;20422;-60
2023/03/04 07:15:58;;;;;;;15.45;2.90;;;5.80;99.90;;;;;;5110859;28;20096;-60
2023/03/04 07:18:24;;;;;;;11.20;2.80;;;5.80;99.90;;;;;;5111389;28;20388;-60
2023/03/04 07:20:52;;;;;;;13.65;3.03;;;5.80;99.90;;;;;;5112152;28;20093;-60
2023/03/04 07:23:18;;;;;;;10.20;2.53;;;5.90;99.90;;;;;;5110548;28;20039;-60
2023/03/04 07:25:44;;;;;;;10.60;2.97;;;5.90;99.90;;;;;;5111071;28;20048;-60
2023/03/04 07:28:10;;;;;;;11.35;2.38;;;5.90;99.90;;;;;;5093652;28;20039;-60
2023/03/04 07:30:35;;;;;;;12.43;2.47;;;6.00;99.90;;;;;;5112075;28;20065;-60
2023/03/04 07:33:01;;;;;;;13.32;3.17;;;6.00;99.90;;;;;;5111157;28;20097;-60
2023/03/04 07:35:27;;;;;;;12.95;3.13;;;6.10;99.90;;;;;;5110957;28;20078;-60
2023/03/04 07:37:52;;;;;;;13.38;2.60;;;6.10;99.90;;;;;;5111256;28;20079;-60
2023/03/04 07:40:20;;;;;;;14.90;3.00;;;6.10;99.90;;;;;;5110606;28;20055;-60
2023/03/04 07:42:53;;;;;;;15.77;3.13;;;6.10;99.90;;;;;;5111497;28;20043;-60
2023/03/04 07:45:18;;;;;;;14.38;4.00;;;6.20;99.90;;;;;;5106042;28;20514;-60
2023/03/04 07:47:44;;;;;;;13.25;3.08;;;6.20;99.90;;;;;;5095074;28;20052;-60
2023/03/04 07:50:11;;;;;;;12.57;3.25;;;6.20;99.90;;;;;;5052829;28;20098;-60
2023/03/04 07:52:38;;;;;;;14.65;3.70;;;6.30;99.90;;;;;;5090646;28;20044;-60
2023/03/04 07:55:04;;;;;;;11.98;3.03;;;6.30;99.90;;;;;;5092145;28;20043;-60
2023/03/04 07:57:30;;;;;;;14.27;3.55;;;6.30;99.90;;;;;;5089515;28;20032;-60
2023/03/04 07:59:55;;;;;;;14.73;3.95;;;6.30;99.90;;;;;;5091042;28;20393;-60
2023/03/04 08:02:21;;;;;;;15.13;2.83;;;6.30;99.90;;;;;;5091669;28;20047;-60
2023/03/04 08:04:47;;;;;;;11.68;3.30;;;6.40;99.90;;;;;;5081697;28;20369;-60
2023/03/04 08:07:12;;;;;;;12.23;2.63;;;6.40;99.90;;;;;;5068009;28;20055;-60
2023/03/04 08:09:38;;;;;;;11.70;2.80;;;6.40;99.90;;;;;;5067196;28;20052;-60
2023/03/04 08:12:04;;;;;;;14.70;3.60;;;6.40;99.90;;;;;;5049764;28;20041;-60
2023/03/04 08:14:30;;;;;;;14.10;3.90;;;6.40;99.90;;;;;;5068441;28;20477;-60
2023/03/04 08:16:56;;;;;;;12.63;2.60;;;6.40;99.90;;;;;;5092464;28;20032;-60
2023/03/04 08:19:21;;;;;;;12.15;2.35;;;6.40;99.90;;;;;;5065964;28;20036;-60
2023/03/04 08:21:47;;;;;;;15.02;3.20;;;6.40;99.90;;;;;;5068815;28;20117;-60
2023/03/04 08:24:13;;;;;;;9.95;2.17;;;6.50;99.90;;;;;;5073349;28;20040;-60
2023/03/04 08:26:42;;;;;;;10.70;2.22;;;6.50;99.90;;;;;;5083530;28;20040;-60
2023/03/04 08:29:12;;;;;;;13.20;2.67;;;6.50;99.90;;;;;;5078848;28;20039;-60
2023/03/04 08:31:38;;;;;;;13.05;2.70;;;6.50;99.90;;;;;;5087689;28;20039;-60
2023/03/04 08:34:05;;;;;;;11.15;2.50;;;6.60;99.90;;;;;;5090512;28;20044;-60
2023/03/04 08:36:31;;;;;;;8.40;2.47;;;6.60;99.90;;;;;;5094087;28;20510;-59
2023/03/04 08:38:56;;;;;;;11.10;2.50;;;6.60;99.90;;;;;;5091885;28;20035;-59
2023/03/04 08:41:24;;;;;;;9.63;2.42;;;6.70;99.90;;;;;;5100005;28;20492;-59
2023/03/04 08:43:50;;;;;;;13.43;3.10;;;6.60;99.90;;;;;;5101663;28;20434;-59
2023/03/04 08:46:16;;;;;;;9.20;2.67;;;6.70;99.90;;;;;;5110476;28;20060;-59
2023/03/04 08:48:42;;;;;;;11.65;3.60;;;6.70;99.90;;;;;;5094716;28;20389;-59
2023/03/04 08:51:10;;;;;;;12.65;2.30;;;6.70;99.90;;;;;;5093919;28;20403;-59
2023/03/04 08:53:37;;;;;;;11.65;2.75;;;6.70;99.90;;;;;;5112266;28;20050;-59
2023/03/04 08:56:04;;;;;;;13.45;3.08;;;6.70;99.90;;;;;;5112051;28;20031;-60
2023/03/04 08:58:29;;;;;;;13.52;3.05;;;6.80;99.90;;;;;;5112695;28;20032;-60
2023/03/04 09:00:57;;;;;;;13.85;3.83;;;6.70;99.90;;;;;;5100349;28;20028;-59
2023/03/04 09:03:23;;;;;;;11.68;3.67;;;6.70;99.90;;;;;;5090411;28;20044;-59
2023/03/04 09:05:48;;;;;;;17.30;3.63;;;6.70;99.90;;;;;;5092387;28;20043;-60
2023/03/04 09:08:15;;;;;;;17.10;3.53;;;6.70;99.90;;;;;;5091253;28;20127;-59
2023/03/04 09:10:40;;;;;;;12.15;3.15;;;6.80;99.90;;;;;;5084633;28;20036;-59
2023/03/04 09:13:07;;;;;;;26.90;4.85;;;6.80;99.90;;;;;;5110707;28;20579;-60
2023/03/04 09:15:36;;;;;;;18.60;3.42;;;6.80;99.90;;;;;;5110172;28;20039;-59
2023/03/04 09:18:02;;;;;;;20.67;4.32;;;6.80;99.90;;;;;;5100785;28;20043;-60
2023/03/04 09:20:29;;;;;;;17.25;4.25;;;6.80;99.90;;;;;;5086442;28;20366;-60
2023/03/04 09:22:55;;;;;;;11.40;2.38;;;6.80;99.90;;;;;;5076195;28;20499;-59
2023/03/04 09:25:20;;;;;;;12.50;3.67;;;6.80;99.90;;;;;;5074186;28;20044;-59
2023/03/04 09:27:46;;;;;;;7.57;2.67;;;6.80;99.90;;;;;;5086506;28;20055;-59
2023/03/04 09:30:12;;;;;;;9.48;2.67;;;6.90;99.90;;;;;;5079760;28;20051;-59
2023/03/04 09:32:38;;;;;;;13.32;2.30;;;6.90;99.90;;;;;;5091397;28;20036;-61
2023/03/04 09:35:05;;;;;;;10.05;2.50;;;6.90;99.90;;;;;;5087359;28;20036;-61
2023/03/04 09:37:30;;;;;;;14.10;3.05;;;6.90;99.90;;;;;;5072719;28;20044;-59
2023/03/04 09:39:56;;;;;;;11.07;2.67;;;6.90;99.90;;;;;;5071725;28;20051;-59
2023/03/04 09:42:43;;;;;;;12.07;3.00;;;6.90;99.90;;;;;;5071493;28;20106;-59
2023/03/04 09:45:19;;;;;;;13.35;3.42;;;6.90;99.90;;;;;;5084232;28;20048;-59
2023/03/04 09:47:46;;;;;;;10.38;3.08;;;6.90;99.90;;;;;;5093024;28;20078;-59
2023/03/04 09:50:12;;;;;;;9.23;2.22;;;6.90;99.90;;;;;;5101537;28;20067;-61
2023/03/04 09:52:48;;;;;;;10.68;2.42;;;7.00;99.90;;;;;;5075466;28;20090;-61
2023/03/04 09:55:24;;;;;;;11.48;2.65;;;7.00;99.90;;;;;;5072767;28;20419;-61
2023/03/04 09:58:05;;;;;;;10.80;1.70;;;7.10;99.90;;;;;;5069489;28;20044;-61
2023/03/04 10:00:38;;;;;;;7.70;1.38;;;7.10;99.90;;;;;;5075218;28;20563;-61
2023/03/04 10:03:15;;;;;;;10.32;1.83;;;7.00;99.90;;;;;;5071925;28;20055;-61
2023/03/04 10:05:56;;;;;;;5.90;1.58;;;7.10;99.90;;;;;;5087811;28;20131;-61
2023/03/04 10:08:34;;;;;;;8.80;1.25;;;7.10;99.90;;;;;;5082360;28;20082;-61
2023/03/04 10:11:02;;;;;;;7.97;1.50;;;7.10;99.90;;;;;;5086517;28;20044;-61
2023/03/04 10:13:49;;;;;;;7.60;2.65;;;7.20;99.90;;;;;;5088944;28;20085;-61
2023/03/04 10:16:20;;;;;;;5.25;1.65;;;7.20;99.90;;;;;;5090393;28;20086;-61
2023/03/04 10:19:22;;;;;;;12.73;1.90;;;7.20;99.90;;;;;;5090399;28;20036;-61
2023/03/04 10:21:50;;;;;;;13.15;4.05;;;7.10;99.90;;;;;;5109371;28;20094;-60
2023/03/04 10:24:23;;;;;;;8.77;2.92;;;6.90;99.90;;;;;;5084713;28;20068;-60
2023/03/04 10:27:00;;;;;;;14.52;2.88;;;6.80;99.90;;;;;;5056517;28;20044;-60
2023/03/04 10:29:29;;;;;;;10.45;2.53;;;6.80;99.90;;;;;;5078203;28;20035;-59
2023/03/04 10:31:55;;;;;;;9.32;2.05;;;6.70;99.90;;;;;;5081301;28;20102;-60
2023/03/04 10:34:21;;;;;;;12.30;2.50;;;6.80;99.90;;;;;;5090967;28;20070;-60
2023/03/04 10:37:04;;;;;;;12.07;4.05;;;6.80;99.90;;;;;;5094711;28;20082;-60
2023/03/04 10:39:42;;;;;;;11.50;2.28;;;6.90;99.90;;;;;;5088559;28;20115;-60
2023/03/04 10:42:14;;;;;;;10.43;2.10;;;6.90;99.90;;;;;;5089716;28;20062;-60
2023/03/04 10:44:59;;;;;;;12.15;2.10;;;7.10;99.90;;;;;;5085651;28;20509;-60
2023/03/04 10:47:28;;;;;;;8.43;2.60;;;7.20;99.90;;;;;;5090328;28;20082;-59
2023/03/04 10:49:56;;;;;;;10.70;2.17;;;7.30;99.90;;;;;;5089719;28;20106;-59
2023/03/04 10:52:22;;;;;;;10.95;2.25;;;7.40;99.90;;;;;;5085011;28;20048;-59
2023/03/04 10:54:54;;;;;;;11.07;2.97;;;7.40;99.90;;;;;;5071976;28;20044;-59
2023/03/04 10:57:31;;;;;;;9.82;2.78;;;7.40;99.90;;;;;;5078745;28;20040;-59
2023/03/04 11:00:17;;;;;;;8.52;3.38;;;7.40;99.90;;;;;;5087487;28;20377;-59
2023/03/04 11:02:43;;;;;;;11.85;2.67;;;7.40;99.90;;;;;;5068982;28;20044;-59
2023/03/04 11:05:18;;;;;;;13.20;3.38;;;7.40;99.90;;;;;;5076638;28;20050;-59
2023/03/04 11:07:44;;;;;;;10.45;2.60;;;7.40;99.90;;;;;;5104161;28;20031;-59
2023/03/04 11:10:37;;;;;;;10.73;2.88;;;7.40;99.90;;;;;;5087438;28;20105;-59
2023/03/04 11:13:16;;;;;;;13.60;3.53;;;7.40;99.90;;;;;;5091023;28;20540;-59
2023/03/04 11:16:00;;;;;;;14.55;2.97;;;7.40;99.90;;;;;;5067459;28;20078;-59
2023/03/04 11:18:41;;;;;;;17.40;3.67;;;7.40;99.90;;;;;;5077475;28;20082;-59
2023/03/04 11:21:12;;;;;;;14.35;5.60;;;7.50;99.90;;;;;;5075084;28;20047;-59
2023/03/04 11:23:38;;;;;;;13.30;3.13;;;7.50;99.90;;;;;;5069573;28;20044;-59
2023/03/04 11:26:18;;;;;;;11.70;3.22;;;7.60;99.90;;;;;;5071303;28;20044;-59
2023/03/04 11:29:12;;;;;;;13.43;4.22;;;7.70;99.90;;;;;;5092017;28;20031;-59
2023/03/04 11:31:46;;;;;;;15.25;3.35;;;7.70;99.90;;;;;;5054352;28;20088;-59
2023/03/04 11:34:26;;;;;;;18.77;4.30;;;7.60;99.90;;;;;;5051388;28;20385;-59
2023/03/04 11:37:10;;;;;;;14.90;3.65;;;7.50;99.90;;;;;;5075575;28;20408;-59
2023/03/04 11:39:50;;;;;;;14.77;3.60;;;7.50;99.90;;;;;;5066592;28;20036;-59
2023/03/04 11:42:28;;;;;;;13.65;3.17;;;7.50;99.90;;;;;;5075458;28;20476;-59
2023/03/04 11:44:55;;;;;;;12.75;2.83;;;7.50;99.90;;;;;;5063009;28;20047;-59
2023/03/04 11:47:30;;;;;;;13.15;3.25;;;7.50;99.90;;;;;;5078561;28;20483;-59
2023/03/04 11:50:18;;;;;;;8.70;2.42;;;7.50;99.90;;;;;;5067697;28;20048;-59
2023/03/04 11:52:47;;;;;;;13.02;3.17;;;7.40;99.90;;;;;;5068204;28;20048;-59
2023/03/04 11:55:22;;;;;;;16.50;3.38;;;7.40;99.90;;;;;;5068643;28;20036;-59
2023/03/04 11:58:34;;;;;;;11.82;3.53;;;7.40;99.90;;;;;;5067700;28;20040;-59
2023/03/04 12:01:17;;;;;;;12.68;3.47;;;7.60;99.90;;;;;;5069545;28;20531;-59
2023/03/04 12:04:02;;;;;;;13.18;3.95;;;8.00;99.90;;;;;;5072950;28;20047;-59
2023/03/04 12:06:40;;;;;;;11.15;2.95;;;8.00;99.90;;;;;;5071781;28;20141;-59
2023/03/04 12:09:36;;;;;;;21.48;3.85;;;7.90;99.90;;;;;;5071533;28;20052;-59
2023/03/04 12:12:26;;;;;;;12.93;3.33;;;7.70;99.90;;;;;;5073290;28;20076;-59
2023/03/04 12:14:52;;;;;;;15.05;3.90;;;7.60;99.90;;;;;;5102955;28;20131;-59
2023/03/04 12:17:42;;;;;;;14.20;3.47;;;7.60;99.90;;;;;;5112803;28;20118;-59
2023/03/04 12:20:31;;;;;;;28.25;4.45;;;7.60;99.90;;;;;;5111653;28;20395;-58
2023/03/04 12:23:06;;;;;;;17.33;4.10;;;7.70;99.90;;;;;;5107913;28;20180;-58
2023/03/04 12:25:52;;;;;;;16.38;2.65;;;7.70;99.90;;;;;;5076838;28;20048;-58
2023/03/04 12:28:53;;;;;;;15.45;4.75;;;7.90;99.90;;;;;;5101097;28;20036;-59
2023/03/04 12:31:52;;;;;;;14.35;2.83;;;8.00;99.90;;;;;;5090828;28;20039;-59
2023/03/04 12:34:32;;;;;;;11.80;2.30;;;8.10;99.90;;;;;;5112822;28;20043;-59
2023/03/04 12:37:16;;;;;;;16.20;3.70;;;7.90;99.90;;;;;;5113748;28;20036;-59
2023/03/04 12:39:54;;;;;;;14.70;2.88;;;7.70;99.90;;;;;;5103859;28;20043;-59
2023/03/04 12:42:49;;;;;;;9.25;2.15;;;7.60;99.90;;;;;;5091048;28;20048;-59
2023/03/04 12:45:42;;;;;;;11.70;3.58;;;7.60;99.90;;;;;;5053397;28;20048;-59
2023/03/04 12:49:02;;;;;;;9.38;2.55;;;7.60;99.90;;;;;;5070576;28;20076;-59
2023/03/04 12:51:40;;;;;;;13.38;2.88;;;7.80;99.90;;;;;;5019023;28;20042;-59
2023/03/04 12:54:29;;;;;;;10.57;2.10;;;7.90;99.90;;;;;;5075443;28;20052;-59
2023/03/04 12:57:03;;;;;;;10.25;2.70;;;7.90;99.90;;;;;;5088072;28;20037;-59
2023/03/04 12:59:35;;;;;;;7.32;2.50;;;7.90;99.90;;;;;;5087740;28;20060;-59
2023/03/04 13:02:32;;;;;;;10.70;2.97;;;7.80;99.90;;;;;;5111156;28;20100;-59